sensor_id;sensor_type;location;lat;lon;timestamp;temperature;humidity
29007;DHT22;16104;48.642;9.008;2022-08-02T01:04:15;21.60;60.30
29007;DHT22;16104;48.642;9.008;2022-08-02T01:09:11;21.50;60.70
29007;DHT22;16104;48.642;9.008;2022-08-02T01:14:10;21.50;60.90
29007;DHT22;16104;48.642;9.008;2022-08-02T02:04:57;20.70;61.90
29007;DHT22;16104;48.642;9.008;2022-08-02T02:09:54;20.70;62.70
29007;DHT22;16104;48.642;9.008;2022-08-02T02:14:51;20.60;62.90
29007;DHT22;16104;48.642;9.008;2022-08-02T03:01:25;20.30;63.60
29007;DHT22;16104;48.642;9.008;2022-08-02T03:06:25;20.30;63.20
29007;DHT22;16104;48.642;9.008;2022-08-02T03:11:22;20.30;63.40
29007;DHT22;16104;48.642;9.008;2022-08-02T03:16:18;20.30;63.20
29007;DHT22;16104;48.642;9.008;2022-08-02T03:21:14;20.20;63.20
29007;DHT22;16104;48.642;9.008;2022-08-02T03:26:10;20.20;63.20
29007;DHT22;16104;48.642;9.008;2022-08-02T03:31:05;20.20;63.00
29007;DHT22;16104;48.642;9.008;2022-08-02T03:36:05;20.20;63.20
29007;DHT22;16104;48.642;9.008;2022-08-02T03:41:05;20.20;63.90
29007;DHT22;16104;48.642;9.008;2022-08-02T03:46:02;20.10;63.70
29007;DHT22;16104;48.642;9.008;2022-08-02T03:50:59;20.10;63.50
29007;DHT22;16104;48.642;9.008;2022-08-02T03:55:55;20.10;63.50
29007;DHT22;16104;48.642;9.008;2022-08-02T04:00:52;20.00;63.70
29007;DHT22;16104;48.642;9.008;2022-08-02T04:05:48;20.00;63.70
29007;DHT22;16104;48.642;9.008;2022-08-02T04:10:43;20.00;63.60
29007;DHT22;16104;48.642;9.008;2022-08-02T04:16:11;19.90;63.70
29007;DHT22;16104;48.642;9.008;2022-08-02T04:21:12;19.90;64.40
29007;DHT22;16104;48.642;9.008;2022-08-02T04:26:09;19.80;64.50
29007;DHT22;16104;48.642;9.008;2022-08-02T04:31:05;19.80;64.00
29007;DHT22;16104;48.642;9.008;2022-08-02T04:36:02;19.80;64.00
29007;DHT22;16104;48.642;9.008;2022-08-02T04:40:59;19.80;64.50
29007;DHT22;16104;48.642;9.008;2022-08-02T04:45:54;19.80;64.60
29007;DHT22;16104;48.642;9.008;2022-08-02T04:50:50;19.80;64.80
29007;DHT22;16104;48.642;9.008;2022-08-02T04:55:46;19.80;64.90
29007;DHT22;16104;48.642;9.008;2022-08-02T05:00:41;19.70;64.80
29007;DHT22;16104;48.642;9.008;2022-08-02T05:05:37;19.80;65.10
29007;DHT22;16104;48.642;9.008;2022-08-02T05:10:32;19.80;64.80
29007;DHT22;16104;48.642;9.008;2022-08-02T05:15:28;19.90;65.00
29007;DHT22;16104;48.642;9.008;2022-08-02T05:20:23;19.90;65.20
29007;DHT22;16104;48.642;9.008;2022-08-02T05:25:19;19.90;65.40
29007;DHT22;16104;48.642;9.008;2022-08-02T05:30:15;19.90;65.40
29007;DHT22;16104;48.642;9.008;2022-08-02T05:35:10;20.00;65.70
29007;DHT22;16104;48.642;9.008;2022-08-02T05:40:06;20.00;65.70
29007;DHT22;16104;48.642;9.008;2022-08-02T05:45:03;20.10;66.30
29007;DHT22;16104;48.642;9.008;2022-08-02T05:49:59;20.10;66.50
29007;DHT22;16104;48.642;9.008;2022-08-02T05:55:06;20.20;66.40
29007;DHT22;16104;48.642;9.008;2022-08-02T06:00:10;20.30;67.30
29007;DHT22;16104;48.642;9.008;2022-08-02T06:10:12;20.40;66.60
29007;DHT22;16104;48.642;9.008;2022-08-02T06:15:08;20.40;66.30
29007;DHT22;16104;48.642;9.008;2022-08-02T06:20:04;20.40;66.50
29007;DHT22;16104;48.642;9.008;2022-08-02T06:25:00;20.50;66.50
29007;DHT22;16104;48.642;9.008;2022-08-02T06:29:56;20.60;66.30
29007;DHT22;16104;48.642;9.008;2022-08-02T06:34:52;20.70;66.30
29007;DHT22;16104;48.642;9.008;2022-08-02T06:39:48;20.80;66.40
29007;DHT22;16104;48.642;9.008;2022-08-02T06:44:46;20.90;66.20
29007;DHT22;16104;48.642;9.008;2022-08-02T06:49:42;21.10;66.00
29007;DHT22;16104;48.642;9.008;2022-08-02T06:54:38;21.20;66.00
29007;DHT22;16104;48.642;9.008;2022-08-02T06:59:36;21.30;65.00
29007;DHT22;16104;48.642;9.008;2022-08-02T07:04:31;21.50;64.70
29007;DHT22;16104;48.642;9.008;2022-08-02T07:09:29;21.60;64.50
29007;DHT22;16104;48.642;9.008;2022-08-02T07:14:24;21.70;64.00
29007;DHT22;16104;48.642;9.008;2022-08-02T07:19:19;21.90;63.90
29007;DHT22;16104;48.642;9.008;2022-08-02T07:24:15;22.00;63.80
29007;DHT22;16104;48.642;9.008;2022-08-02T07:29:10;22.20;63.60
29007;DHT22;16104;48.642;9.008;2022-08-02T07:34:06;22.40;63.50
29007;DHT22;16104;48.642;9.008;2022-08-02T07:39:02;22.50;63.30
29007;DHT22;16104;48.642;9.008;2022-08-02T07:43:57;22.70;63.10
29007;DHT22;16104;48.642;9.008;2022-08-02T07:48:53;23.00;62.90
29007;DHT22;16104;48.642;9.008;2022-08-02T07:53:49;23.20;62.60
29007;DHT22;16104;48.642;9.008;2022-08-02T07:58:44;23.30;61.10
29007;DHT22;16104;48.642;9.008;2022-08-02T08:03:40;23.50;61.20
29007;DHT22;16104;48.642;9.008;2022-08-02T08:08:35;23.70;62.00
29007;DHT22;16104;48.642;9.008;2022-08-02T08:13:31;24.00;61.20
29007;DHT22;16104;48.642;9.008;2022-08-02T08:18:26;24.20;61.10
29007;DHT22;16104;48.642;9.008;2022-08-02T08:23:22;24.40;59.70
29007;DHT22;16104;48.642;9.008;2022-08-02T08:28:18;24.50;59.00
29007;DHT22;16104;48.642;9.008;2022-08-02T08:33:14;24.60;58.20
29007;DHT22;16104;48.642;9.008;2022-08-02T08:38:10;24.60;58.20
29007;DHT22;16104;48.642;9.008;2022-08-02T08:43:06;24.80;58.30
29007;DHT22;16104;48.642;9.008;2022-08-02T08:48:10;24.90;58.00
29007;DHT22;16104;48.642;9.008;2022-08-02T08:53:12;25.10;56.50
29007;DHT22;16104;48.642;9.008;2022-08-02T08:58:10;25.30;57.20
29007;DHT22;16104;48.642;9.008;2022-08-02T09:03:07;25.50;56.70
29007;DHT22;16104;48.642;9.008;2022-08-02T09:08:04;25.70;56.60
29007;DHT22;16104;48.642;9.008;2022-08-02T09:13:17;25.90;56.20
29007;DHT22;16104;48.642;9.008;2022-08-02T09:18:14;26.10;54.70
29007;DHT22;16104;48.642;9.008;2022-08-02T09:23:10;26.20;55.00
29007;DHT22;16104;48.642;9.008;2022-08-02T09:28:06;26.40;55.30
29007;DHT22;16104;48.642;9.008;2022-08-02T09:33:02;26.60;54.60
29007;DHT22;16104;48.642;9.008;2022-08-02T09:38:13;26.80;54.10
29007;DHT22;16104;48.642;9.008;2022-08-02T09:43:09;27.10;53.50
29007;DHT22;16104;48.642;9.008;2022-08-02T09:48:08;27.40;52.50
29007;DHT22;16104;48.642;9.008;2022-08-02T09:53:04;27.70;51.20
29007;DHT22;16104;48.642;9.008;2022-08-02T09:58:16;28.00;52.20
29007;DHT22;16104;48.642;9.008;2022-08-02T10:03:12;28.30;51.60
29007;DHT22;16104;48.642;9.008;2022-08-02T10:08:07;28.60;51.20
29007;DHT22;16104;48.642;9.008;2022-08-02T10:13:04;28.90;50.10
29007;DHT22;16104;48.642;9.008;2022-08-02T10:17:59;29.20;49.70
29007;DHT22;16104;48.642;9.008;2022-08-02T10:22:57;29.50;49.40
29007;DHT22;16104;48.642;9.008;2022-08-02T10:27:53;29.80;48.70
29007;DHT22;16104;48.642;9.008;2022-08-02T10:32:49;30.00;48.70
29007;DHT22;16104;48.642;9.008;2022-08-02T10:37:47;30.20;48.10
29007;DHT22;16104;48.642;9.008;2022-08-02T10:42:47;30.50;48.10
29007;DHT22;16104;48.642;9.008;2022-08-02T10:48:00;30.70;47.90
29007;DHT22;16104;48.642;9.008;2022-08-02T10:58:24;31.30;44.40
29007;DHT22;16104;48.642;9.008;2022-08-02T11:08:23;31.90;44.60
29007;DHT22;16104;48.642;9.008;2022-08-02T11:13:19;32.10;44.30
29007;DHT22;16104;48.642;9.008;2022-08-02T11:18:15;32.40;43.60
29007;DHT22;16104;48.642;9.008;2022-08-02T11:23:33;32.60;42.80
29007;DHT22;16104;48.642;9.008;2022-08-02T11:28:30;32.80;42.20
29007;DHT22;16104;48.642;9.008;2022-08-02T11:33:30;33.00;42.60
29007;DHT22;16104;48.642;9.008;2022-08-02T11:38:26;33.20;41.00
29007;DHT22;16104;48.642;9.008;2022-08-02T11:43:24;33.50;41.60
29007;DHT22;16104;48.642;9.008;2022-08-02T11:48:37;33.70;40.30
29007;DHT22;16104;48.642;9.008;2022-08-02T11:53:44;33.80;37.90
29007;DHT22;16104;48.642;9.008;2022-08-02T11:58:40;34.00;39.70
29007;DHT22;16104;48.642;9.008;2022-08-02T12:03:37;34.20;38.80
29007;DHT22;16104;48.642;9.008;2022-08-02T12:08:36;34.40;38.10
29007;DHT22;16104;48.642;9.008;2022-08-02T12:13:42;34.60;35.80
29007;DHT22;16104;48.642;9.008;2022-08-02T12:18:38;34.80;35.60
29007;DHT22;16104;48.642;9.008;2022-08-02T12:23:53;35.00;37.50
29007;DHT22;16104;48.642;9.008;2022-08-02T12:28:54;35.20;36.20
29007;DHT22;16104;48.642;9.008;2022-08-02T12:33:53;35.30;35.10
29007;DHT22;16104;48.642;9.008;2022-08-02T12:38:59;35.50;35.70
29007;DHT22;16104;48.642;9.008;2022-08-02T12:43:55;35.70;34.60
29007;DHT22;16104;48.642;9.008;2022-08-02T12:48:51;35.70;34.80
29007;DHT22;16104;48.642;9.008;2022-08-02T12:53:48;35.90;34.60
29007;DHT22;16104;48.642;9.008;2022-08-02T12:58:50;36.00;34.50
29007;DHT22;16104;48.642;9.008;2022-08-02T13:03:46;36.20;33.20
29007;DHT22;16104;48.642;9.008;2022-08-02T13:08:42;36.30;33.90
29007;DHT22;16104;48.642;9.008;2022-08-02T13:13:37;36.50;33.80
29007;DHT22;16104;48.642;9.008;2022-08-02T13:18:33;36.70;33.10
29007;DHT22;16104;48.642;9.008;2022-08-02T13:23:29;36.90;32.70
29007;DHT22;16104;48.642;9.008;2022-08-02T13:28:25;37.00;32.00
29007;DHT22;16104;48.642;9.008;2022-08-02T13:33:20;37.20;31.60
29007;DHT22;16104;48.642;9.008;2022-08-02T13:38:16;37.30;30.80
29007;DHT22;16104;48.642;9.008;2022-08-02T13:43:11;37.30;31.00
29007;DHT22;16104;48.642;9.008;2022-08-02T13:48:07;37.30;30.70
29007;DHT22;16104;48.642;9.008;2022-08-02T13:53:02;37.30;30.10
29007;DHT22;16104;48.642;9.008;2022-08-02T13:57:58;37.20;30.20
29007;DHT22;16104;48.642;9.008;2022-08-02T14:02:53;37.20;31.00
29007;DHT22;16104;48.642;9.008;2022-08-02T14:07:49;37.20;30.00
29007;DHT22;16104;48.642;9.008;2022-08-02T14:12:44;37.30;30.50
29007;DHT22;16104;48.642;9.008;2022-08-02T14:17:40;37.40;29.90
29007;DHT22;16104;48.642;9.008;2022-08-02T14:22:35;37.50;30.20
29007;DHT22;16104;48.642;9.008;2022-08-02T14:27:32;37.50;30.80
29007;DHT22;16104;48.642;9.008;2022-08-02T14:32:28;37.50;30.10
29007;DHT22;16104;48.642;9.008;2022-08-02T14:37:23;37.60;29.90
29007;DHT22;16104;48.642;9.008;2022-08-02T14:42:19;37.70;29.40
29007;DHT22;16104;48.642;9.008;2022-08-02T14:47:14;37.70;29.70
29007;DHT22;16104;48.642;9.008;2022-08-02T14:52:10;37.70;29.10
29007;DHT22;16104;48.642;9.008;2022-08-02T14:57:08;37.60;29.00
29007;DHT22;16104;48.642;9.008;2022-08-02T15:02:04;37.50;29.60
29007;DHT22;16104;48.642;9.008;2022-08-02T15:07:00;37.50;29.30
29007;DHT22;16104;48.642;9.008;2022-08-02T15:11:55;37.50;29.90
29007;DHT22;16104;48.642;9.008;2022-08-02T15:16:51;37.60;29.10
29007;DHT22;16104;48.642;9.008;2022-08-02T15:21:47;37.60;29.10
29007;DHT22;16104;48.642;9.008;2022-08-02T15:26:42;37.60;28.50
29007;DHT22;16104;48.642;9.008;2022-08-02T15:31:38;37.60;28.80
29007;DHT22;16104;48.642;9.008;2022-08-02T15:36:34;37.60;29.10
29007;DHT22;16104;48.642;9.008;2022-08-02T15:41:29;37.60;28.50
29007;DHT22;16104;48.642;9.008;2022-08-02T15:46:25;37.50;28.50
29007;DHT22;16104;48.642;9.008;2022-08-02T15:51:20;37.40;28.30
29007;DHT22;16104;48.642;9.008;2022-08-02T15:56:16;37.30;28.20
29007;DHT22;16104;48.642;9.008;2022-08-02T16:01:11;37.20;28.20
29007;DHT22;16104;48.642;9.008;2022-08-02T16:06:07;37.00;28.40
29007;DHT22;16104;48.642;9.008;2022-08-02T16:11:02;36.80;28.80
29007;DHT22;16104;48.642;9.008;2022-08-02T16:15:58;36.70;28.50
29007;DHT22;16104;48.642;9.008;2022-08-02T16:20:53;36.60;28.70
29007;DHT22;16104;48.642;9.008;2022-08-02T16:25:49;36.50;29.10
29007;DHT22;16104;48.642;9.008;2022-08-02T16:30:44;36.50;28.80
29007;DHT22;16104;48.642;9.008;2022-08-02T16:35:40;36.40;28.50
29007;DHT22;16104;48.642;9.008;2022-08-02T16:40:36;36.40;28.70
29007;DHT22;16104;48.642;9.008;2022-08-02T16:45:31;36.30;28.90
29007;DHT22;16104;48.642;9.008;2022-08-02T16:50:27;36.20;28.80
29007;DHT22;16104;48.642;9.008;2022-08-02T16:55:23;36.10;28.70
29007;DHT22;16104;48.642;9.008;2022-08-02T17:00:19;36.00;29.00
29007;DHT22;16104;48.642;9.008;2022-08-02T17:05:14;35.90;29.20
29007;DHT22;16104;48.642;9.008;2022-08-02T17:10:10;35.70;29.50
29007;DHT22;16104;48.642;9.008;2022-08-02T17:15:07;35.60;29.60
29007;DHT22;16104;48.642;9.008;2022-08-02T17:20:03;35.50;30.40
29007;DHT22;16104;48.642;9.008;2022-08-02T17:24:59;35.40;29.70
29007;DHT22;16104;48.642;9.008;2022-08-02T17:29:55;35.30;29.60
29007;DHT22;16104;48.642;9.008;2022-08-02T17:34:50;35.20;29.80
29007;DHT22;16104;48.642;9.008;2022-08-02T17:39:46;35.00;29.90
29007;DHT22;16104;48.642;9.008;2022-08-02T17:44:42;34.80;30.00
29007;DHT22;16104;48.642;9.008;2022-08-02T17:49:37;34.60;30.00
29007;DHT22;16104;48.642;9.008;2022-08-02T17:54:33;34.40;30.20
29007;DHT22;16104;48.642;9.008;2022-08-02T17:59:29;34.20;30.70
29007;DHT22;16104;48.642;9.008;2022-08-02T18:04:26;33.90;30.90
29007;DHT22;16104;48.642;9.008;2022-08-02T18:09:22;33.70;31.50
29007;DHT22;16104;48.642;9.008;2022-08-02T18:14:18;33.50;31.70
29007;DHT22;16104;48.642;9.008;2022-08-02T18:19:15;33.50;32.00
29007;DHT22;16104;48.642;9.008;2022-08-02T18:24:11;33.40;32.00
29007;DHT22;16104;48.642;9.008;2022-08-02T18:29:07;33.30;32.20
29007;DHT22;16104;48.642;9.008;2022-08-02T18:34:04;33.10;32.00
29007;DHT22;16104;48.642;9.008;2022-08-02T18:43:31;32.80;32.00
29007;DHT22;16104;48.642;9.008;2022-08-02T18:48:27;32.50;32.50
29007;DHT22;16104;48.642;9.008;2022-08-02T18:53:23;32.30;33.00
29007;DHT22;16104;48.642;9.008;2022-08-02T18:58:19;32.00;33.40
29007;DHT22;16104;48.642;9.008;2022-08-02T19:03:14;31.80;33.90
29007;DHT22;16104;48.642;9.008;2022-08-02T19:08:10;31.50;34.10
29007;DHT22;16104;48.642;9.008;2022-08-02T19:13:06;31.30;34.40
29007;DHT22;16104;48.642;9.008;2022-08-02T19:18:02;31.10;35.10
29007;DHT22;16104;48.642;9.008;2022-08-02T19:22:57;30.80;36.10
29007;DHT22;16104;48.642;9.008;2022-08-02T19:27:53;30.60;35.90
29007;DHT22;16104;48.642;9.008;2022-08-02T19:32:49;30.30;36.00
29007;DHT22;16104;48.642;9.008;2022-08-02T19:37:44;30.20;36.30
29007;DHT22;16104;48.642;9.008;2022-08-02T19:42:41;30.00;36.80
29007;DHT22;16104;48.642;9.008;2022-08-02T19:47:39;29.70;36.80
29007;DHT22;16104;48.642;9.008;2022-08-02T19:52:35;29.60;37.30
29007;DHT22;16104;48.642;9.008;2022-08-02T19:57:31;29.40;38.30
29007;DHT22;16104;48.642;9.008;2022-08-02T20:02:28;29.20;38.80
29007;DHT22;16104;48.642;9.008;2022-08-02T20:07:23;29.10;39.10
29007;DHT22;16104;48.642;9.008;2022-08-02T20:12:19;28.90;39.80
29007;DHT22;16104;48.642;9.008;2022-08-02T20:17:14;28.70;40.30
29007;DHT22;16104;48.642;9.008;2022-08-02T20:22:10;28.60;40.80
29007;DHT22;16104;48.642;9.008;2022-08-02T20:27:06;28.40;40.50
29007;DHT22;16104;48.642;9.008;2022-08-02T20:32:02;28.20;40.80
29007;DHT22;16104;48.642;9.008;2022-08-02T20:36:58;27.90;40.80
29007;DHT22;16104;48.642;9.008;2022-08-02T20:41:53;27.80;41.30
29007;DHT22;16104;48.642;9.008;2022-08-02T20:46:49;27.60;41.20
29007;DHT22;16104;48.642;9.008;2022-08-02T20:51:44;27.50;41.50
29007;DHT22;16104;48.642;9.008;2022-08-02T20:56:40;27.40;41.70
29007;DHT22;16104;48.642;9.008;2022-08-02T21:01:35;27.20;42.20
29007;DHT22;16104;48.642;9.008;2022-08-02T21:06:31;27.10;42.80
29007;DHT22;16104;48.642;9.008;2022-08-02T21:11:26;27.00;43.20
29007;DHT22;16104;48.642;9.008;2022-08-02T21:16:22;26.90;43.70
29007;DHT22;16104;48.642;9.008;2022-08-02T21:21:17;26.70;43.70
29007;DHT22;16104;48.642;9.008;2022-08-02T21:26:13;26.60;44.30
29007;DHT22;16104;48.642;9.008;2022-08-02T21:31:08;26.50;44.40
29007;DHT22;16104;48.642;9.008;2022-08-02T21:36:04;26.30;44.60
29007;DHT22;16104;48.642;9.008;2022-08-02T21:41:00;26.20;45.00
29007;DHT22;16104;48.642;9.008;2022-08-02T21:45:55;26.10;45.30
29007;DHT22;16104;48.642;9.008;2022-08-02T21:50:51;26.00;46.00
29007;DHT22;16104;48.642;9.008;2022-08-02T21:55:46;25.90;45.80
29007;DHT22;16104;48.642;9.008;2022-08-02T22:00:42;25.80;46.20
29007;DHT22;16104;48.642;9.008;2022-08-02T22:05:37;25.70;46.60
29007;DHT22;16104;48.642;9.008;2022-08-02T22:10:33;25.60;46.60
29007;DHT22;16104;48.642;9.008;2022-08-02T22:15:49;25.50;47.10
29007;DHT22;16104;48.642;9.008;2022-08-02T22:20:44;25.40;47.10
29007;DHT22;16104;48.642;9.008;2022-08-02T22:25:40;25.30;47.40
29007;DHT22;16104;48.642;9.008;2022-08-02T22:30:35;25.20;47.50
29007;DHT22;16104;48.642;9.008;2022-08-02T22:35:31;25.10;47.80
29007;DHT22;16104;48.642;9.008;2022-08-02T22:40:27;25.00;48.20
29007;DHT22;16104;48.642;9.008;2022-08-02T22:45:23;24.90;48.20
29007;DHT22;16104;48.642;9.008;2022-08-02T22:50:18;24.80;48.30
29007;DHT22;16104;48.642;9.008;2022-08-02T22:55:14;24.70;48.50
29007;DHT22;16104;48.642;9.008;2022-08-02T23:00:10;24.60;48.60
29007;DHT22;16104;48.642;9.008;2022-08-02T23:05:05;24.50;48.80
29007;DHT22;16104;48.642;9.008;2022-08-02T23:10:01;24.50;48.80
29007;DHT22;16104;48.642;9.008;2022-08-02T23:14:59;24.40;49.20
29007;DHT22;16104;48.642;9.008;2022-08-02T23:19:58;24.30;49.40
29007;DHT22;16104;48.642;9.008;2022-08-02T23:24:54;24.20;50.10
29007;DHT22;16104;48.642;9.008;2022-08-02T23:29:49;24.10;49.50
29007;DHT22;16104;48.642;9.008;2022-08-02T23:34:45;24.10;49.80
29007;DHT22;16104;48.642;9.008;2022-08-02T23:39:41;24.00;50.10
29007;DHT22;16104;48.642;9.008;2022-08-02T23:44:36;23.90;50.10
29007;DHT22;16104;48.642;9.008;2022-08-02T23:49:32;23.90;50.50
29007;DHT22;16104;48.642;9.008;2022-08-02T23:54:28;23.80;50.80
29007;DHT22;16104;48.642;9.008;2022-08-02T23:59:26;23.70;51.10
